FMMI

Ivato Airport

Antananarivo, Madagascar
METAR FMMI 260400Z 00000KT 8000 3500N FEW005 SCT020 11/11 Q1023 BECMG 4500 BR
Observed Flight Rules
May-26 @ 04:00 UTC (15 minutes ago) Marginal Visual Flight Rules
Visibility Clouds
7,998 meters
  • Few at 500' AGL
  • Scattered at 2,000' AGL
Temperatures Readings
Current 11°C / 52°F
Dewpoint 11°C / 52°F
Humidity 100%
Altimeter 30.21" Hg
Pressure 1023 hPa
Elevation 1276
METAR FMMI 260400Z 00000KT 8000 3500N FEW005 SCT020 11/11 Q1023 BECMG 4500 BR
Observed Flight Rules
May-26 @ 04:00 UTC
(15 minutes ago)
MVFR
Clouds
  • Few at 500' AGL
  • Scattered at 2,000' AGL
Temperature Dewpoint
11°C / 52°F 11°C / 52°F
Humidity Altimeter Pressure
100% 30.21" Hg 1023 hPa